Terminal Aerodrome Forecast
Issued by NWS

Home | Current Version | Previous Version | Text Only | Print | Product List | Glossary Off
Versions: 1 2 3 4 5 6 7 8 9 10 11 12 13 14 15 16 17 18

000
FTUS43 KABR 172000 AAA
TAFMBG
TAF AMD
KMBG 172042Z 1721/1818 16013G20KT P6SM OVC070
     FM180100 13015KT P6SM OVC100
     FM180600 11018G24KT P6SM VCSH OVC050
     FM180900 13020G26KT P6SM BKN100=

USA.gov is the U.S. government's official web portal to all federal, state and local government web resources and services.